createdAt,value
2018-12-21T00:02:10.196Z,6.20
2018-12-21T00:04:38.450Z,6.30
2018-12-21T00:07:06.695Z,6.20
2018-12-21T00:09:34.912Z,6.10
2018-12-21T00:12:03.925Z,6.10
2018-12-21T00:14:32.166Z,6.10
2018-12-21T00:17:00.357Z,6.10
2018-12-21T00:19:29.322Z,6.00
2018-12-21T00:21:57.581Z,6.00
2018-12-21T00:24:25.856Z,6.00
2018-12-21T00:26:54.099Z,5.90
2018-12-21T00:29:22.311Z,5.90
2018-12-21T00:31:56.246Z,5.90
2018-12-21T00:34:30.167Z,6.00
2018-12-21T00:37:04.069Z,5.90
2018-12-21T00:39:37.995Z,5.80
2018-12-21T00:42:07.030Z,5.90
2018-12-21T00:44:35.256Z,5.90
2018-12-21T00:47:03.499Z,5.90
2018-12-21T00:49:31.751Z,5.90
2018-12-21T00:52:00.005Z,5.90
2018-12-21T00:54:29.013Z,5.60
2018-12-21T00:56:57.984Z,5.80
2018-12-21T00:59:26.189Z,5.80
2018-12-21T01:01:54.433Z,5.70
2018-12-21T01:04:22.639Z,5.60
2018-12-21T01:06:50.860Z,5.70
2018-12-21T01:09:19.121Z,5.70
2018-12-21T01:11:47.357Z,5.80
2018-12-21T01:14:16.370Z,5.70
2018-12-21T01:16:44.619Z,5.70
2018-12-21T01:19:13.631Z,5.80
2018-12-21T01:21:41.865Z,5.80
2018-12-21T01:24:10.089Z,5.80
2018-12-21T01:26:38.332Z,5.80
2018-12-21T01:29:06.570Z,5.80
2018-12-21T01:31:34.827Z,5.90
2018-12-21T01:34:03.050Z,5.90
2018-12-21T01:36:31.296Z,5.80
2018-12-21T01:38:59.490Z,5.70
2018-12-21T01:41:27.710Z,5.70
2018-12-21T01:43:55.958Z,5.70
2018-12-21T01:46:24.196Z,5.50
2018-12-21T01:48:52.382Z,5.40
2018-12-21T01:51:20.586Z,5.50
2018-12-21T01:53:49.581Z,5.40
2018-12-21T01:56:17.786Z,5.30
2018-12-21T01:58:45.991Z,5.40
2018-12-21T02:01:14.268Z,5.40
2018-12-21T02:03:42.457Z,5.60
2018-12-21T02:06:10.685Z,5.50
2018-12-21T02:08:38.876Z,5.50
2018-12-21T02:11:07.132Z,5.40
2018-12-21T02:13:36.134Z,5.40
2018-12-21T02:16:04.337Z,5.40
2018-12-21T02:18:32.577Z,5.40
2018-12-21T02:21:01.600Z,5.30
2018-12-21T02:23:29.820Z,5.30
2018-12-21T02:25:58.050Z,5.40
2018-12-21T02:28:27.221Z,5.30
2018-12-21T02:30:56.232Z,5.30
2018-12-21T02:33:25.219Z,5.30
2018-12-21T02:35:53.451Z,5.30
2018-12-21T02:38:21.657Z,5.40
2018-12-21T02:40:50.647Z,5.50
2018-12-21T02:43:18.897Z,5.50
2018-12-21T02:45:47.121Z,5.50
2018-12-21T02:48:15.324Z,5.40
2018-12-21T02:50:43.520Z,5.30
2018-12-21T02:53:11.769Z,5.40
2018-12-21T02:55:40.001Z,5.40
2018-12-21T02:58:08.210Z,5.50
2018-12-21T03:00:36.451Z,5.50
2018-12-21T03:03:05.425Z,5.50
2018-12-21T03:05:33.610Z,5.50
2018-12-21T03:08:01.870Z,5.40
2018-12-21T03:10:30.060Z,5.40
2018-12-21T03:12:58.321Z,5.40
2018-12-21T03:15:26.566Z,5.40
2018-12-21T03:17:55.550Z,5.40
2018-12-21T03:20:23.797Z,5.40
2018-12-21T03:22:52.039Z,5.40
2018-12-21T03:25:20.289Z,5.40
2018-12-21T03:27:48.493Z,5.40
2018-12-21T03:30:16.777Z,5.50
2018-12-21T03:32:45.011Z,5.60
2018-12-21T03:35:13.239Z,5.50
2018-12-21T03:37:41.495Z,5.50
2018-12-21T03:40:09.749Z,5.40
2018-12-21T03:42:37.987Z,5.40
2018-12-21T03:45:06.197Z,5.40
2018-12-21T03:47:34.441Z,5.50
2018-12-21T03:50:02.685Z,5.50
2018-12-21T03:52:30.877Z,5.60
2018-12-21T03:54:59.091Z,5.60
2018-12-21T03:57:27.293Z,5.50
2018-12-21T03:59:55.574Z,5.50
2018-12-21T04:02:23.774Z,5.50
2018-12-21T04:04:52.222Z,5.50
2018-12-21T04:07:20.469Z,5.50
2018-12-21T04:09:49.484Z,5.50
2018-12-21T04:12:17.686Z,5.50
2018-12-21T04:14:45.932Z,5.60
2018-12-21T04:17:14.181Z,5.50
2018-12-21T04:19:43.180Z,5.50
2018-12-21T04:22:12.164Z,5.50
2018-12-21T04:24:42.015Z,5.50
2018-12-21T04:27:10.206Z,5.50
2018-12-21T04:29:38.408Z,5.60
2018-12-21T04:32:06.634Z,5.60
2018-12-21T04:34:34.871Z,5.70
2018-12-21T04:37:03.071Z,5.70
2018-12-21T04:39:31.314Z,5.60
2018-12-21T04:41:59.564Z,5.70
2018-12-21T04:44:27.822Z,5.70
2018-12-21T04:46:56.006Z,5.70
2018-12-21T04:49:24.264Z,5.80
2018-12-21T04:51:52.468Z,5.70
2018-12-21T04:54:21.430Z,5.80
2018-12-21T04:56:50.355Z,5.80
2018-12-21T04:59:18.618Z,5.80
2018-12-21T05:01:46.833Z,5.70
2018-12-21T05:04:19.761Z,5.80
2018-12-21T05:06:43.293Z,5.70
2018-12-21T05:09:12.011Z,5.80
2018-12-21T05:11:40.970Z,5.70
2018-12-21T05:14:09.192Z,5.70
2018-12-21T05:16:37.384Z,5.80
2018-12-21T05:19:05.605Z,5.70
2018-12-21T05:21:34.588Z,5.80
2018-12-21T05:24:02.858Z,5.80
2018-12-21T05:26:31.090Z,5.80
2018-12-21T05:28:59.340Z,5.80
2018-12-21T05:31:28.786Z,5.90
2018-12-21T05:33:56.592Z,5.80
2018-12-21T05:36:24.857Z,6.00
2018-12-21T05:38:53.082Z,5.90
2018-12-21T05:41:21.330Z,5.90
2018-12-21T05:43:49.565Z,6.00
2018-12-21T05:46:17.831Z,5.90
2018-12-21T05:48:46.038Z,5.90
2018-12-21T05:51:14.311Z,6.00
2018-12-21T05:53:42.511Z,5.80
2018-12-21T05:56:10.767Z,5.80
2018-12-21T05:58:38.977Z,5.80
2018-12-21T06:01:07.968Z,5.80
2018-12-21T06:03:36.997Z,5.90
2018-12-21T06:06:05.221Z,5.90
2018-12-21T06:08:33.926Z,5.90
2018-12-21T06:11:03.845Z,5.90
2018-12-21T06:13:32.858Z,6.00
2018-12-21T06:16:01.813Z,6.00
2018-12-21T06:18:30.307Z,6.00
2018-12-21T06:20:58.485Z,5.90
2018-12-21T06:23:27.477Z,6.00
2018-12-21T06:25:56.455Z,6.10
2018-12-21T06:28:25.513Z,6.10
2018-12-21T06:30:53.739Z,6.10
2018-12-21T06:33:22.018Z,6.10
2018-12-21T06:35:50.261Z,6.10
2018-12-21T06:38:18.519Z,6.10
2018-12-21T06:40:47.741Z,6.00
2018-12-21T06:43:15.997Z,6.00
2018-12-21T06:45:44.249Z,6.00
2018-12-21T06:48:13.245Z,6.10
2018-12-21T06:50:42.221Z,6.00
2018-12-21T06:53:17.950Z,6.10
2018-12-21T06:55:39.415Z,6.00
2018-12-21T06:58:07.661Z,6.20
2018-12-21T07:00:35.899Z,6.20
2018-12-21T07:03:04.890Z,6.20
2018-12-21T07:05:33.170Z,6.20
2018-12-21T07:08:01.325Z,6.10
2018-12-21T07:10:29.524Z,6.10
2018-12-21T07:12:57.724Z,6.20
2018-12-21T07:15:25.942Z,6.30
2018-12-21T07:17:54.192Z,6.20
2018-12-21T07:20:22.738Z,6.20
2018-12-21T07:22:50.930Z,6.30
2018-12-21T07:25:19.799Z,6.30
2018-12-21T07:27:48.022Z,6.30
2018-12-21T07:30:16.994Z,6.20
2018-12-21T07:32:45.249Z,6.30
2018-12-21T07:35:13.492Z,6.30
2018-12-21T07:37:42.652Z,6.40
2018-12-21T07:40:11.673Z,6.60
2018-12-21T07:42:39.890Z,6.60
2018-12-21T07:45:08.102Z,6.60
2018-12-21T07:47:37.089Z,6.50
2018-12-21T07:50:05.348Z,6.50
2018-12-21T07:52:33.554Z,6.60
2018-12-21T07:55:02.526Z,6.60
2018-12-21T07:57:31.570Z,6.50
2018-12-21T07:59:59.760Z,6.50
2018-12-21T08:02:27.978Z,6.40
2018-12-21T08:04:56.193Z,6.50
2018-12-21T08:07:24.398Z,6.60
2018-12-21T08:09:52.658Z,6.70
2018-12-21T08:12:20.915Z,6.70
2018-12-21T08:14:49.930Z,6.70
2018-12-21T08:17:18.165Z,6.70
2018-12-21T08:19:47.205Z,6.80
2018-12-21T08:22:15.441Z,6.80
2018-12-21T08:24:43.681Z,6.90
2018-12-21T08:27:11.917Z,6.80
2018-12-21T08:29:40.177Z,6.80
2018-12-21T08:32:09.181Z,6.80
2018-12-21T08:34:37.430Z,6.80
2018-12-21T08:37:06.365Z,6.70
2018-12-21T08:39:34.625Z,6.60
2018-12-21T08:42:03.583Z,6.50
2018-12-21T08:44:31.854Z,6.50
2018-12-21T08:47:00.083Z,6.50
2018-12-21T08:49:28.299Z,6.30
2018-12-21T08:51:56.502Z,6.40
2018-12-21T08:54:25.518Z,6.30
2018-12-21T08:56:54.495Z,6.40
2018-12-21T08:59:23.481Z,6.50
2018-12-21T09:01:51.733Z,6.50
2018-12-21T09:04:19.935Z,6.50
2018-12-21T09:06:48.958Z,6.40
2018-12-21T09:09:18.014Z,6.40
2018-12-21T09:11:46.213Z,6.30
2018-12-21T09:14:15.186Z,6.50
2018-12-21T09:16:43.450Z,6.40
2018-12-21T09:19:11.706Z,6.50
2018-12-21T09:21:39.936Z,6.50
2018-12-21T09:24:08.943Z,6.50
2018-12-21T09:26:37.152Z,6.50
2018-12-21T09:29:06.122Z,6.60
2018-12-21T09:31:34.338Z,6.50
2018-12-21T09:34:02.586Z,6.50
2018-12-21T09:36:31.602Z,6.40
2018-12-21T09:38:59.835Z,6.40
2018-12-21T09:41:28.055Z,6.40
2018-12-21T09:43:56.328Z,6.40
2018-12-21T09:46:24.576Z,6.40
2018-12-21T09:48:52.845Z,6.50
2018-12-21T09:51:21.835Z,6.60
2018-12-21T09:53:50.800Z,6.60
2018-12-21T09:56:19.030Z,6.60
2018-12-21T09:58:47.246Z,6.60
2018-12-21T10:01:15.518Z,6.50
2018-12-21T10:03:43.739Z,6.60
2018-12-21T10:06:11.947Z,6.70
2018-12-21T10:08:40.155Z,6.70
2018-12-21T10:11:08.625Z,6.70
2018-12-21T10:13:36.882Z,6.80
2018-12-21T10:16:05.106Z,6.80
2018-12-21T10:18:34.086Z,6.80
2018-12-21T10:21:03.102Z,6.70
2018-12-21T10:23:32.539Z,6.80
2018-12-21T10:26:00.775Z,6.70
2018-12-21T10:28:29.745Z,6.80
2018-12-21T10:30:57.972Z,6.70
2018-12-21T10:33:26.181Z,6.80
2018-12-21T10:35:54.451Z,6.80
2018-12-21T10:38:22.643Z,6.70
2018-12-21T10:40:50.907Z,6.60
2018-12-21T10:43:19.096Z,6.60
2018-12-21T10:45:47.305Z,6.70
2018-12-21T10:48:15.576Z,6.70
2018-12-21T10:50:44.553Z,6.70
2018-12-21T10:53:13.096Z,6.60
2018-12-21T10:55:41.294Z,6.70
2018-12-21T10:58:09.490Z,6.70
2018-12-21T11:00:37.751Z,6.80
2018-12-21T11:03:05.939Z,6.70
2018-12-21T11:05:34.208Z,6.60
2018-12-21T11:08:02.439Z,6.70
2018-12-21T11:10:30.682Z,6.70
2018-12-21T11:12:59.676Z,6.70
2018-12-21T11:15:28.701Z,6.70
2018-12-21T11:17:56.957Z,6.70
2018-12-21T11:20:25.170Z,6.70
2018-12-21T11:22:54.172Z,6.70
2018-12-21T11:25:22.434Z,6.70
2018-12-21T11:27:50.690Z,6.60
2018-12-21T11:30:18.943Z,6.60
2018-12-21T11:32:48.141Z,6.50
2018-12-21T11:35:16.327Z,6.50
2018-12-21T11:37:45.345Z,6.70
2018-12-21T11:40:13.607Z,6.60
2018-12-21T11:42:42.605Z,6.50
2018-12-21T11:45:10.809Z,6.50
2018-12-21T11:47:39.059Z,6.50
2018-12-21T11:50:08.069Z,6.60
2018-12-21T11:52:36.571Z,6.60
2018-12-21T11:55:04.794Z,6.60
2018-12-21T11:57:33.006Z,6.70
2018-12-21T12:00:02.020Z,6.60
2018-12-21T12:02:30.229Z,6.60
2018-12-21T12:04:58.433Z,6.50
2018-12-21T12:07:27.412Z,6.50
2018-12-21T12:09:56.487Z,6.70
2018-12-21T12:12:24.726Z,6.60
2018-12-21T12:14:52.985Z,6.70
2018-12-21T12:17:21.185Z,6.70
2018-12-21T12:19:49.402Z,6.70
2018-12-21T12:22:18.419Z,6.80
2018-12-21T12:24:52.736Z,6.70
2018-12-21T12:27:15.638Z,6.70
2018-12-21T12:29:43.902Z,6.70
2018-12-21T12:32:12.133Z,6.70
2018-12-21T12:34:41.158Z,6.80
2018-12-21T12:37:09.393Z,6.80
2018-12-21T12:39:37.639Z,6.80
2018-12-21T12:42:05.874Z,6.80
2018-12-21T12:44:34.122Z,6.80
2018-12-21T12:47:02.335Z,6.80
2018-12-21T12:49:30.573Z,6.70
2018-12-21T12:51:59.387Z,6.80
2018-12-21T12:54:28.392Z,6.90
2018-12-21T12:56:57.653Z,6.90
2018-12-21T12:59:25.875Z,7.00
2018-12-21T13:01:54.130Z,7.00
2018-12-21T13:04:22.338Z,7.00
2018-12-21T13:06:50.570Z,7.00
2018-12-21T13:09:19.528Z,7.00
2018-12-21T13:11:47.775Z,7.00
2018-12-21T13:14:16.667Z,7.10
2018-12-21T13:16:44.274Z,7.10
2018-12-21T13:19:12.541Z,7.10
2018-12-21T13:21:40.735Z,7.20
2018-12-21T13:24:09.010Z,7.30
2018-12-21T13:26:37.228Z,7.30
2018-12-21T13:29:06.245Z,7.20
2018-12-21T13:31:34.451Z,7.20
2018-12-21T13:34:02.731Z,7.30
2018-12-21T13:36:30.924Z,7.30
2018-12-21T13:38:59.955Z,7.40
2018-12-21T13:41:28.158Z,7.40
2018-12-21T13:43:56.422Z,7.40
2018-12-21T13:46:24.704Z,7.50
2018-12-21T13:48:53.641Z,7.50
2018-12-21T13:51:22.672Z,7.60
2018-12-21T13:53:50.871Z,7.60
2018-12-21T13:56:19.145Z,7.70
2018-12-21T13:58:47.351Z,7.70
2018-12-21T14:01:15.624Z,7.80
2018-12-21T14:03:43.853Z,7.80
2018-12-21T14:06:12.864Z,7.90
2018-12-21T14:08:41.069Z,7.90
2018-12-21T14:11:10.806Z,8.00
2018-12-21T14:13:39.017Z,7.90
2018-12-21T14:16:07.783Z,8.00
2018-12-21T14:18:35.989Z,8.00
2018-12-21T14:21:04.191Z,8.10
2018-12-21T14:23:32.417Z,8.10
2018-12-21T14:26:00.664Z,8.20
2018-12-21T14:28:28.906Z,8.20
2018-12-21T14:30:57.163Z,8.20
2018-12-21T14:33:25.353Z,8.30
2018-12-21T14:35:53.601Z,8.30
2018-12-21T14:38:21.846Z,8.40
2018-12-21T14:40:50.865Z,8.40
2018-12-21T14:43:19.709Z,8.30
2018-12-21T14:45:48.919Z,8.40
2018-12-21T14:48:17.142Z,8.60
2018-12-21T14:50:45.415Z,8.60
2018-12-21T14:53:13.603Z,8.60
2018-12-21T14:55:41.857Z,8.60
2018-12-21T14:58:10.096Z,8.70
2018-12-21T15:00:38.319Z,8.70
2018-12-21T15:03:06.525Z,8.80
2018-12-21T15:05:34.795Z,8.70
2018-12-21T15:08:03.035Z,8.80
2018-12-21T15:10:32.231Z,8.80
2018-12-21T15:13:01.249Z,8.90
2018-12-21T15:15:29.501Z,8.80
2018-12-21T15:17:58.465Z,8.90
2018-12-21T15:20:26.707Z,8.90
2018-12-21T15:22:54.919Z,9.00
2018-12-21T15:25:23.831Z,9.00
2018-12-21T15:27:52.853Z,9.10
2018-12-21T15:30:21.363Z,9.10
2018-12-21T15:32:49.608Z,9.20
2018-12-21T15:35:18.607Z,9.10
2018-12-21T15:37:46.833Z,9.10
2018-12-21T15:40:15.060Z,9.10
2018-12-21T15:42:43.251Z,9.20
2018-12-21T15:45:12.467Z,9.30
2018-12-21T15:47:40.691Z,9.30
2018-12-21T15:50:09.664Z,9.40
2018-12-21T15:52:38.662Z,9.40
2018-12-21T15:55:07.671Z,9.40
2018-12-21T15:57:36.675Z,9.40
2018-12-21T16:00:04.889Z,9.30
2018-12-21T16:02:33.089Z,9.30
2018-12-21T16:05:01.305Z,9.40
2018-12-21T16:07:29.515Z,9.40
2018-12-21T16:09:57.779Z,9.40
2018-12-21T16:12:25.971Z,9.50
2018-12-21T16:14:54.237Z,9.60
2018-12-21T16:17:22.443Z,9.60
2018-12-21T16:19:50.652Z,9.50
2018-12-21T16:22:18.856Z,9.50
2018-12-21T16:24:47.106Z,9.60
2018-12-21T16:27:15.366Z,9.70
2018-12-21T16:29:44.398Z,9.60
2018-12-21T16:32:12.640Z,9.60
2018-12-21T16:34:41.627Z,9.70
2018-12-21T16:37:10.642Z,9.60
2018-12-21T16:39:38.856Z,9.60
2018-12-21T16:42:07.114Z,9.70
2018-12-21T16:44:36.144Z,9.70
2018-12-21T16:47:04.351Z,9.70
2018-12-21T16:49:33.312Z,9.70
2018-12-21T16:52:01.684Z,9.70
2018-12-21T16:54:29.770Z,9.70
2018-12-21T16:56:58.034Z,9.80
2018-12-21T16:59:26.246Z,9.80
2018-12-21T17:01:54.468Z,9.80
2018-12-21T17:04:22.660Z,9.90
2018-12-21T17:06:50.918Z,9.90
2018-12-21T17:09:19.639Z,9.90
2018-12-21T17:11:48.637Z,10.00
2018-12-21T17:14:16.856Z,10.00
2018-12-21T17:16:45.097Z,10.00
2018-12-21T17:19:13.345Z,10.10
2018-12-21T17:21:41.598Z,10.10
2018-12-21T17:24:09.867Z,10.10
2018-12-21T17:26:38.072Z,10.00
2018-12-21T17:29:06.375Z,10.00
2018-12-21T17:31:34.583Z,10.20
2018-12-21T17:34:02.850Z,10.20
2018-12-21T17:36:31.831Z,10.00
2018-12-21T17:39:00.098Z,10.00
2018-12-21T17:41:29.806Z,10.20
2018-12-21T17:43:58.041Z,10.20
2018-12-21T17:46:26.332Z,10.20
2018-12-21T17:48:54.570Z,10.20
2018-12-21T17:51:24.256Z,10.30
2018-12-21T17:53:53.308Z,10.20
2018-12-21T17:56:29.709Z,10.30
2018-12-21T17:58:51.868Z,10.40
2018-12-21T18:01:21.107Z,10.40
2018-12-21T18:03:49.372Z,10.40
2018-12-21T18:06:17.602Z,10.40
2018-12-21T18:08:45.844Z,10.50
2018-12-21T18:11:14.087Z,10.60
2018-12-21T18:13:43.707Z,10.60
2018-12-21T18:16:11.965Z,10.60
2018-12-21T18:18:40.957Z,10.60
2018-12-21T18:21:09.956Z,10.60
2018-12-21T18:23:38.183Z,10.60
2018-12-21T18:26:06.440Z,10.70
2018-12-21T18:28:35.553Z,10.80
2018-12-21T18:31:03.757Z,10.80
2018-12-21T18:33:32.032Z,10.90
2018-12-21T18:36:01.000Z,10.90
2018-12-21T18:38:29.225Z,10.90
2018-12-21T18:40:58.212Z,10.90
2018-12-21T18:43:27.253Z,11.00
2018-12-21T18:45:55.507Z,11.00
2018-12-21T18:48:23.751Z,11.10
2018-12-21T18:50:52.786Z,11.20
2018-12-21T18:53:21.116Z,11.20
2018-12-21T18:55:49.332Z,11.10
2018-12-21T18:58:18.370Z,11.20
2018-12-21T19:00:46.583Z,11.30
2018-12-21T19:03:15.608Z,11.30
2018-12-21T19:05:44.592Z,11.30
2018-12-21T19:08:12.849Z,11.40
2018-12-21T19:10:42.115Z,11.60
2018-12-21T19:13:11.137Z,11.50
2018-12-21T19:15:39.365Z,11.50
2018-12-21T19:18:07.679Z,11.60
2018-12-21T19:20:35.938Z,11.70
2018-12-21T19:23:04.215Z,11.70
2018-12-21T19:25:32.447Z,11.70
2018-12-21T19:28:00.712Z,11.60
2018-12-21T19:30:29.680Z,11.60
2018-12-21T19:32:58.489Z,11.60
2018-12-21T19:35:29.862Z,11.60
2018-12-21T19:37:56.488Z,11.60
2018-12-21T19:40:25.507Z,11.60
2018-12-21T19:42:53.737Z,11.60
2018-12-21T19:45:22.767Z,11.70
2018-12-21T19:47:50.981Z,11.70
2018-12-21T19:50:19.978Z,11.70
2018-12-21T19:52:48.278Z,11.70
2018-12-21T19:55:16.509Z,11.80
2018-12-21T19:57:44.716Z,11.80
2018-12-21T20:00:12.993Z,11.80
2018-12-21T20:02:41.753Z,11.80
2018-12-21T20:05:10.022Z,11.80
2018-12-21T20:07:39.804Z,11.90
2018-12-21T20:10:08.026Z,11.80
2018-12-21T20:12:37.040Z,11.70
2018-12-21T20:15:05.292Z,11.70
2018-12-21T20:17:33.491Z,11.80
2018-12-21T20:20:02.612Z,11.70
2018-12-21T20:22:31.600Z,11.70
2018-12-21T20:24:59.842Z,11.70
2018-12-21T20:27:28.112Z,11.70
2018-12-21T20:29:57.158Z,11.70
2018-12-21T20:32:25.426Z,11.80
2018-12-21T20:34:53.669Z,11.90
2018-12-21T20:37:21.914Z,11.80
2018-12-21T20:39:50.184Z,11.80
2018-12-21T20:42:19.229Z,11.80
2018-12-21T20:44:47.499Z,11.80
2018-12-21T20:47:15.750Z,11.70
2018-12-21T20:49:43.963Z,11.70
2018-12-21T20:52:12.217Z,11.70
2018-12-21T20:54:40.480Z,11.80
2018-12-21T20:57:08.807Z,11.70
2018-12-21T20:59:37.792Z,11.80
2018-12-21T21:02:06.042Z,11.80
2018-12-21T21:04:34.262Z,11.80
2018-12-21T21:07:03.273Z,11.90
2018-12-21T21:09:32.253Z,11.90
2018-12-21T21:12:01.270Z,11.80
2018-12-21T21:14:29.538Z,11.80
2018-12-21T21:16:58.558Z,11.90
2018-12-21T21:19:26.835Z,11.90
2018-12-21T21:21:55.479Z,12.00
2018-12-21T21:24:24.440Z,11.90
2018-12-21T21:26:52.720Z,11.90
2018-12-21T21:29:21.900Z,11.90
2018-12-21T21:31:50.144Z,11.80
2018-12-21T21:34:19.976Z,11.80
2018-12-21T21:36:49.050Z,11.80
2018-12-21T21:39:18.035Z,11.60
2018-12-21T21:41:47.027Z,11.70
2018-12-21T21:44:16.055Z,11.70
2018-12-21T21:46:44.254Z,11.70
2018-12-21T21:49:12.534Z,11.70
2018-12-21T21:51:40.730Z,11.70
2018-12-21T21:54:09.037Z,11.70
2018-12-21T21:56:37.223Z,11.70
2018-12-21T21:59:05.504Z,11.70
2018-12-21T22:01:34.281Z,11.70
2018-12-21T22:04:02.591Z,11.90
2018-12-21T22:06:30.802Z,11.80
2018-12-21T22:08:59.191Z,11.70
2018-12-21T22:11:27.344Z,11.80
2018-12-21T22:13:55.599Z,11.70
2018-12-21T22:16:23.869Z,11.70
2018-12-21T22:18:52.109Z,11.80
2018-12-21T22:21:20.399Z,11.80
2018-12-21T22:23:48.614Z,11.80
2018-12-21T22:26:16.884Z,11.80
2018-12-21T22:28:45.314Z,11.90
2018-12-21T22:31:13.531Z,11.80
2018-12-21T22:33:41.775Z,11.90
2018-12-21T22:36:10.747Z,11.80
2018-12-21T22:38:38.970Z,11.80
2018-12-21T22:41:07.242Z,11.80
2018-12-21T22:43:35.450Z,11.80
2018-12-21T22:46:03.666Z,11.80
2018-12-21T22:48:32.695Z,11.90
2018-12-21T22:51:00.905Z,11.80
2018-12-21T22:53:29.131Z,11.80
2018-12-21T22:55:57.383Z,11.70
2018-12-21T22:58:25.601Z,11.70
2018-12-21T23:00:53.808Z,11.50
2018-12-21T23:03:22.081Z,11.50
2018-12-21T23:05:50.323Z,11.50
2018-12-21T23:08:18.545Z,11.40
2018-12-21T23:10:46.758Z,11.40
2018-12-21T23:13:14.971Z,11.40
2018-12-21T23:15:43.180Z,11.30
2018-12-21T23:18:12.147Z,11.40
2018-12-21T23:20:40.424Z,11.40
2018-12-21T23:23:08.654Z,11.40
2018-12-21T23:25:37.675Z,11.50
2018-12-21T23:28:07.019Z,11.50
2018-12-21T23:30:35.516Z,11.50
2018-12-21T23:33:05.997Z,11.60
2018-12-21T23:35:33.518Z,11.40
2018-12-21T23:38:02.493Z,11.50
2018-12-21T23:40:30.812Z,11.50
2018-12-21T23:42:59.945Z,11.50
2018-12-21T23:45:28.155Z,11.50
2018-12-21T23:47:57.170Z,11.50
2018-12-21T23:50:25.516Z,11.50
2018-12-21T23:52:53.711Z,11.60
2018-12-21T23:55:22.733Z,11.50
2018-12-21T23:57:51.790Z,11.50
